createdAt,value
2019-03-21T00:02:31.319Z,6.33
2019-03-21T00:05:03.689Z,6.20
2019-03-21T00:07:35.738Z,5.87
2019-03-21T00:10:42.352Z,6.13
2019-03-21T00:13:14.874Z,5.83
2019-03-21T00:15:46.968Z,7.13
2019-03-21T00:18:19.099Z,5.90
2019-03-21T00:20:51.283Z,6.70
2019-03-21T00:23:22.967Z,5.83
2019-03-21T00:25:54.554Z,6.90
2019-03-21T00:28:26.584Z,6.57
2019-03-21T00:30:58.818Z,7.17
2019-03-21T00:33:31.063Z,6.83
2019-03-21T00:36:03.059Z,7.30
2019-03-21T00:38:35.019Z,6.90
2019-03-21T00:41:06.624Z,7.43
2019-03-21T00:43:38.473Z,7.73
2019-03-21T00:46:10.850Z,7.70
2019-03-21T00:48:42.865Z,7.37
2019-03-21T00:51:14.617Z,7.40
2019-03-21T00:53:46.208Z,8.53
2019-03-21T00:56:18.569Z,8.17
2019-03-21T00:58:50.469Z,7.70
2019-03-21T01:01:22.781Z,7.83
2019-03-21T01:03:54.828Z,7.47
2019-03-21T01:06:26.589Z,7.93
2019-03-21T01:08:58.928Z,7.47
2019-03-21T01:11:30.693Z,8.40
2019-03-21T01:14:02.964Z,9.70
2019-03-21T01:16:34.339Z,8.23
2019-03-21T01:19:06.383Z,9.40
2019-03-21T01:21:38.256Z,8.33
2019-03-21T01:24:10.253Z,9.00
2019-03-21T01:26:42.043Z,8.83
2019-03-21T01:29:14.298Z,8.50
2019-03-21T01:31:46.266Z,9.00
2019-03-21T01:34:18.128Z,10.30
2019-03-21T01:36:49.750Z,9.60
2019-03-21T01:39:21.868Z,9.73
2019-03-21T01:41:54.144Z,9.47
2019-03-21T01:44:25.883Z,9.60
2019-03-21T01:46:57.159Z,9.80
2019-03-21T01:49:29.288Z,9.67
2019-03-21T01:52:00.969Z,9.83
2019-03-21T01:54:32.648Z,9.13
2019-03-21T01:57:04.779Z,10.37
2019-03-21T01:59:36.388Z,10.47
2019-03-21T02:02:08.253Z,10.37
2019-03-21T02:04:40.353Z,10.63
2019-03-21T02:07:12.518Z,10.50
2019-03-21T02:09:44.853Z,10.53
2019-03-21T02:12:17.030Z,10.37
2019-03-21T02:14:52.395Z,10.73
2019-03-21T02:17:21.874Z,11.30
2019-03-21T02:19:54.999Z,11.20
2019-03-21T02:22:26.776Z,10.70
2019-03-21T02:24:58.696Z,11.50
2019-03-21T02:27:30.870Z,10.87
2019-03-21T02:30:02.490Z,10.77
2019-03-21T02:32:34.143Z,11.10
2019-03-21T02:35:06.604Z,10.57
2019-03-21T02:37:38.679Z,11.00
2019-03-21T02:40:13.634Z,10.23
2019-03-21T02:42:45.744Z,10.30
2019-03-21T02:45:18.098Z,10.60
2019-03-21T02:47:50.506Z,11.07
2019-03-21T02:50:25.229Z,10.87
2019-03-21T02:52:57.299Z,9.77
2019-03-21T02:55:29.404Z,10.00
2019-03-21T02:58:01.668Z,10.50
2019-03-21T03:00:34.633Z,10.47
2019-03-21T03:03:06.734Z,10.57
2019-03-21T03:05:38.394Z,11.10
2019-03-21T03:08:10.759Z,10.37
2019-03-21T03:10:45.320Z,11.10
2019-03-21T03:13:17.334Z,11.27
2019-03-21T03:15:49.274Z,11.27
2019-03-21T03:18:21.385Z,11.03
2019-03-21T03:20:53.379Z,11.87
2019-03-21T03:23:25.489Z,10.63
2019-03-21T03:25:57.098Z,11.03
2019-03-21T03:28:29.577Z,11.13
2019-03-21T03:31:01.777Z,11.77
2019-03-21T03:33:33.074Z,11.13
2019-03-21T03:36:04.743Z,11.33
2019-03-21T03:38:36.742Z,11.37
2019-03-21T03:41:09.448Z,10.80
2019-03-21T03:43:41.373Z,10.97
2019-03-21T03:46:13.466Z,10.23
2019-03-21T03:48:45.493Z,10.57
2019-03-21T03:51:17.564Z,10.80
2019-03-21T03:53:49.499Z,10.03
2019-03-21T03:56:21.775Z,10.47
2019-03-21T03:58:54.423Z,10.63
2019-03-21T04:01:26.293Z,9.90
2019-03-21T04:03:58.419Z,11.03
2019-03-21T04:06:30.146Z,10.33
2019-03-21T04:09:02.103Z,9.77
2019-03-21T04:11:34.344Z,10.47
2019-03-21T04:14:06.248Z,10.57
2019-03-21T04:16:38.660Z,11.87
2019-03-21T04:19:10.210Z,11.43
2019-03-21T04:21:42.212Z,10.97
2019-03-21T04:24:13.969Z,11.90
2019-03-21T04:26:46.043Z,10.80
2019-03-21T04:29:18.160Z,10.83
2019-03-21T04:31:50.790Z,10.73
2019-03-21T04:34:22.738Z,10.73
2019-03-21T04:36:54.714Z,10.80
2019-03-21T04:39:26.792Z,10.47
2019-03-21T04:41:59.013Z,11.03
2019-03-21T04:44:30.564Z,10.90
2019-03-21T04:47:01.909Z,11.77
2019-03-21T04:49:33.864Z,10.57
2019-03-21T04:52:05.849Z,11.57
2019-03-21T04:54:37.879Z,12.80
2019-03-21T04:57:09.398Z,12.40
2019-03-21T04:59:41.149Z,13.47
2019-03-21T05:02:12.839Z,13.00
2019-03-21T05:04:44.873Z,12.03
2019-03-21T05:07:16.245Z,10.90
2019-03-21T05:09:47.653Z,10.90
2019-03-21T05:12:20.258Z,11.27
2019-03-21T05:14:52.246Z,11.50
2019-03-21T05:17:24.295Z,11.13
2019-03-21T05:19:56.234Z,11.07
2019-03-21T05:22:28.978Z,12.10
2019-03-21T05:25:01.033Z,11.37
2019-03-21T05:27:32.954Z,13.97
2019-03-21T05:30:05.414Z,12.53
2019-03-21T05:32:37.208Z,12.27
2019-03-21T05:35:09.189Z,11.40
2019-03-21T05:37:41.439Z,12.30
2019-03-21T05:40:14.604Z,11.67
2019-03-21T05:42:50.379Z,13.07
2019-03-21T05:45:22.428Z,13.43
2019-03-21T05:47:54.423Z,12.87
2019-03-21T05:50:26.053Z,14.37
2019-03-21T05:52:57.731Z,13.53
2019-03-21T05:55:29.468Z,13.20
2019-03-21T05:58:01.003Z,12.77
2019-03-21T06:00:39.369Z,14.13
2019-03-21T06:03:14.773Z,13.23
2019-03-21T06:05:48.578Z,11.07
2019-03-21T06:08:23.909Z,12.70
2019-03-21T06:10:55.684Z,12.23
2019-03-21T06:13:27.403Z,12.70
2019-03-21T06:16:06.609Z,12.63
2019-03-21T06:19:22.663Z,13.13
2019-03-21T06:22:40.725Z,12.37
2019-03-21T06:25:34.213Z,13.73
2019-03-21T06:28:05.938Z,12.70
2019-03-21T06:30:38.019Z,12.10
2019-03-21T06:33:10.143Z,13.23
2019-03-21T06:35:42.184Z,13.00
2019-03-21T06:38:14.384Z,14.00
2019-03-21T06:40:46.418Z,13.80
2019-03-21T06:43:18.565Z,13.90
2019-03-21T06:45:50.815Z,13.50
2019-03-21T06:48:22.859Z,13.33
2019-03-21T06:50:54.933Z,12.80
2019-03-21T06:53:27.097Z,14.40
2019-03-21T06:55:59.168Z,13.60
2019-03-21T06:58:31.179Z,13.33
2019-03-21T07:01:03.113Z,13.33
2019-03-21T07:03:35.312Z,12.60
2019-03-21T07:06:06.865Z,13.37
2019-03-21T07:08:38.860Z,13.37
2019-03-21T07:11:11.149Z,13.10
2019-03-21T07:13:42.809Z,12.87
2019-03-21T07:16:14.433Z,13.63
2019-03-21T07:18:46.103Z,12.00
2019-03-21T07:21:17.800Z,12.77
2019-03-21T07:27:24.024Z,8.73
2019-03-21T07:30:21.963Z,9.50
2019-03-21T07:38:47.669Z,8.50
2019-03-21T07:41:38.844Z,7.90
2019-03-21T07:44:31.924Z,6.67
2019-03-21T07:47:12.867Z,6.60
2019-03-21T07:52:55.449Z,5.57
2019-03-21T07:55:27.209Z,5.97
2019-03-21T07:58:28.734Z,6.27
2019-03-21T08:01:26.805Z,6.37
2019-03-21T08:07:38.384Z,6.43
2019-03-21T08:10:13.770Z,6.03
2019-03-21T08:12:51.635Z,6.73
2019-03-21T08:15:29.789Z,5.47
2019-03-21T08:18:24.424Z,6.23
2019-03-21T08:21:17.980Z,5.63
2019-03-21T08:24:17.459Z,6.57
2019-03-21T08:26:57.754Z,5.10
2019-03-21T08:42:52.121Z,5.20
2019-03-21T08:45:51.688Z,5.40
2019-03-21T08:49:27.134Z,4.63
2019-03-21T08:52:47.366Z,5.50
2019-03-21T08:55:44.073Z,5.10
2019-03-21T09:04:53.659Z,4.73
2019-03-21T09:07:41.354Z,4.57
2019-03-21T09:17:16.863Z,4.87
2019-03-21T09:19:52.019Z,5.00
2019-03-21T09:26:05.704Z,5.10
2019-03-21T09:29:02.039Z,5.23
2019-03-21T09:32:05.741Z,5.63
2019-03-21T09:35:04.734Z,6.13
2019-03-21T09:38:14.418Z,5.93
2019-03-21T09:41:13.834Z,5.50
2019-03-21T09:50:50.729Z,4.83
2019-03-21T09:53:33.514Z,6.03
2019-03-21T09:56:32.894Z,5.70
2019-03-21T09:59:25.620Z,5.53
2019-03-21T10:02:38.008Z,5.67
2019-03-21T10:09:00.014Z,6.47
2019-03-21T10:12:17.524Z,6.00
2019-03-21T10:15:21.874Z,6.00
2019-03-21T10:27:20.123Z,6.67
2019-03-21T10:29:51.781Z,6.20
2019-03-21T10:32:36.079Z,6.37
2019-03-21T10:35:19.786Z,6.30
2019-03-21T10:40:51.149Z,7.07
2019-03-21T10:43:31.709Z,7.13
2019-03-21T10:46:53.950Z,7.17
2019-03-21T10:49:38.223Z,6.80
2019-03-21T10:52:10.344Z,7.20
2019-03-21T10:54:45.490Z,7.00
2019-03-21T10:57:25.384Z,7.37
2019-03-21T11:00:03.461Z,7.20
2019-03-21T11:05:42.136Z,7.47
2019-03-21T11:08:28.959Z,8.27
2019-03-21T11:11:28.125Z,6.77
2019-03-21T11:13:59.733Z,7.90
2019-03-21T11:16:37.919Z,8.13
2019-03-21T11:19:33.208Z,8.10
2019-03-21T11:30:40.303Z,8.43
2019-03-21T11:33:50.158Z,8.13
2019-03-21T11:36:22.123Z,8.60
2019-03-21T11:39:15.599Z,7.93
2019-03-21T11:42:03.820Z,7.40
2019-03-21T11:44:53.156Z,9.20
2019-03-21T11:47:42.208Z,7.67
2019-03-21T11:50:31.822Z,7.30
2019-03-21T11:53:09.469Z,7.80
2019-03-21T11:55:41.525Z,8.63
2019-03-21T11:58:13.549Z,8.43
2019-03-21T12:00:45.859Z,8.97
2019-03-21T12:03:33.043Z,7.97
2019-03-21T12:06:53.308Z,8.37
2019-03-21T12:09:51.399Z,7.77
2019-03-21T12:12:23.824Z,8.40
2019-03-21T12:15:25.713Z,8.60
2019-03-21T12:18:12.744Z,7.97
2019-03-21T12:20:44.784Z,7.83
2019-03-21T12:23:34.764Z,9.60
2019-03-21T12:30:04.889Z,9.20
2019-03-21T12:33:09.634Z,8.67
2019-03-21T12:36:00.269Z,8.33
2019-03-21T12:38:45.788Z,8.80
2019-03-21T12:42:03.981Z,8.77
2019-03-21T12:45:03.630Z,9.00
2019-03-21T12:57:25.255Z,9.33
2019-03-21T13:00:21.047Z,9.60
2019-03-21T13:09:14.669Z,8.53
2019-03-21T13:12:19.514Z,9.10
2019-03-21T13:18:24.230Z,9.10
2019-03-21T13:21:40.589Z,9.40
2019-03-21T13:31:10.904Z,9.77
2019-03-21T13:34:14.754Z,9.23
2019-03-21T13:37:21.473Z,9.67
2019-03-21T13:40:36.453Z,9.70
2019-03-21T14:02:32.819Z,10.50
2019-03-21T14:05:24.869Z,11.07
2019-03-21T14:11:29.670Z,12.27
2019-03-21T14:24:10.263Z,12.43
2019-03-21T14:36:56.633Z,11.23
2019-03-21T14:43:02.734Z,12.87
2019-03-21T14:46:15.234Z,11.73
2019-03-21T14:48:56.529Z,11.53
2019-03-21T14:51:50.753Z,12.37
2019-03-21T14:58:04.629Z,12.23
2019-03-21T15:04:02.095Z,13.37
2019-03-21T15:06:51.878Z,13.57
2019-03-21T15:10:06.434Z,13.33
2019-03-21T15:15:52.284Z,12.53
2019-03-21T15:19:03.807Z,13.33
2019-03-21T15:22:04.209Z,12.77
2019-03-21T15:25:20.357Z,13.10
2019-03-21T15:31:43.743Z,12.53
2019-03-21T15:34:28.839Z,13.63
2019-03-21T15:40:17.894Z,13.33
2019-03-21T15:43:25.429Z,13.23
2019-03-21T15:46:19.099Z,13.43
2019-03-21T15:49:24.353Z,13.83
2019-03-21T15:58:04.800Z,14.43
2019-03-21T16:00:58.979Z,15.47
2019-03-21T16:06:50.154Z,13.37
2019-03-21T16:18:31.600Z,14.90
2019-03-21T16:21:42.229Z,14.40
2019-03-21T16:25:08.854Z,15.10
2019-03-21T16:28:10.655Z,15.17
2019-03-21T16:34:23.469Z,15.70
2019-03-21T16:37:48.753Z,15.23
2019-03-21T16:41:13.440Z,15.00
2019-03-21T16:47:03.414Z,14.90
2019-03-21T16:50:15.553Z,13.87
2019-03-21T16:59:10.504Z,14.60
2019-03-21T17:02:08.914Z,14.10
2019-03-21T17:08:12.970Z,13.80
2019-03-21T17:10:56.483Z,14.57
2019-03-21T17:13:47.670Z,13.60
2019-03-21T17:16:43.105Z,14.17
2019-03-21T17:22:31.449Z,13.43
2019-03-21T17:25:44.887Z,14.17
2019-03-21T17:32:22.354Z,14.20
2019-03-21T17:35:29.749Z,14.00
2019-03-21T17:38:17.494Z,13.23
2019-03-21T17:41:12.290Z,13.20
2019-03-21T17:44:11.664Z,13.83
2019-03-21T17:47:20.054Z,15.17
2019-03-21T17:49:57.693Z,15.27
2019-03-21T18:09:00.092Z,19.93
2019-03-21T18:12:07.424Z,21.77
2019-03-21T18:24:34.752Z,19.07
2019-03-21T18:27:38.524Z,17.70
2019-03-21T18:30:25.499Z,16.00
2019-03-21T18:40:17.159Z,16.43
2019-03-21T18:58:26.552Z,16.00
2019-03-21T19:11:34.429Z,15.83
2019-03-21T19:14:52.336Z,16.77
2019-03-21T19:21:18.659Z,17.10
2019-03-21T19:24:21.155Z,17.90
2019-03-21T19:40:17.139Z,16.90
2019-03-21T19:46:55.010Z,59.60
2019-03-21T19:49:42.379Z,17.27
2019-03-21T19:57:58.881Z,14.20
2019-03-21T20:04:13.360Z,13.70
2019-03-21T20:07:36.249Z,14.27
2019-03-21T20:13:55.364Z,13.43
2019-03-21T20:16:57.289Z,14.90
2019-03-21T20:19:58.118Z,14.67
2019-03-21T20:23:23.899Z,14.00
2019-03-21T20:30:10.365Z,13.13
2019-03-21T20:42:40.469Z,15.17
2019-03-21T20:45:41.629Z,15.93
2019-03-21T20:55:04.284Z,14.10
2019-03-21T20:58:10.694Z,15.43
2019-03-21T21:00:56.399Z,16.27
2019-03-21T21:17:08.368Z,22.83
2019-03-21T21:19:40.869Z,17.73
2019-03-21T21:22:20.419Z,16.10
2019-03-21T21:25:19.070Z,14.83
2019-03-21T21:28:40.739Z,13.63
2019-03-21T21:34:54.374Z,15.77
2019-03-21T21:37:29.458Z,15.57
2019-03-21T21:40:54.765Z,16.37
2019-03-21T21:44:00.139Z,18.00
2019-03-21T21:50:52.969Z,17.20
2019-03-21T21:53:26.596Z,18.53
2019-03-21T21:55:58.444Z,19.97
2019-03-21T21:59:35.882Z,17.70
2019-03-21T22:02:29.220Z,18.00
2019-03-21T22:15:11.217Z,16.30
2019-03-21T22:17:43.410Z,17.57
2019-03-21T22:20:34.134Z,17.77
2019-03-21T22:30:16.804Z,17.27
2019-03-21T22:32:48.705Z,19.30
2019-03-21T22:35:20.308Z,19.23
2019-03-21T22:38:46.739Z,19.23
2019-03-21T22:44:55.823Z,18.20
2019-03-21T22:51:22.639Z,18.73
2019-03-21T22:54:07.089Z,20.13
2019-03-21T22:56:41.621Z,18.87
2019-03-21T23:03:08.515Z,17.27
2019-03-21T23:06:11.118Z,19.47
2019-03-21T23:09:11.598Z,18.50
2019-03-21T23:12:27.738Z,18.33
2019-03-21T23:15:00.321Z,18.90
2019-03-21T23:17:32.269Z,20.00
2019-03-21T23:20:48.736Z,18.23
2019-03-21T23:23:36.568Z,19.47
2019-03-21T23:26:57.761Z,19.20
2019-03-21T23:32:57.372Z,19.07
2019-03-21T23:35:30.298Z,18.93
2019-03-21T23:41:39.444Z,18.97
2019-03-21T23:51:11.099Z,21.03
2019-03-21T23:54:09.228Z,21.10
